Alba, Texas
Current Conditions -  °F | °C
As of 3:35 AM on Sunday 26 Oct 2014 (Local Time) from KJDD Reporting Station
Clear Clear  
Wind Chill: 68°   Ceiling: Unl
Heat Index: 68°   Visibility: 10mi
Dew Point: 63°   Wind: 6mph
Humidity: 83%   Direction: 200°SSW
Pressure: 30.03"   Gusts: NA
Location:  32.79°N, 95.63°W
Report Text: KJDD 260835Z AUTO 20005KT 10SM CLR 20/17 A3003 RMK AO2
Loading
Personal Weather Stations






























Interactive Weather Map
Tropical Storm Tracking
New forecast layout! Learn more

10-Day Weather Forecast

Advertisements
Track Severe Weather on mobile